sensor_id;sensor_type;location;lat;lon;timestamp;temperature;humidity
10566;DHT22;5331;48.148;16.326;2023-03-29T00:02:16;1.70;1.00
10566;DHT22;5331;48.148;16.326;2023-03-29T00:04:44;1.60;1.00
10566;DHT22;5331;48.148;16.326;2023-03-29T00:07:11;1.50;1.00
10566;DHT22;5331;48.148;16.326;2023-03-29T00:09:38;1.30;1.00
10566;DHT22;5331;48.148;16.326;2023-03-29T00:12:06;1.30;1.00
10566;DHT22;5331;48.148;16.326;2023-03-29T00:14:34;1.30;1.00
10566;DHT22;5331;48.148;16.326;2023-03-29T00:17:01;1.20;1.00
10566;DHT22;5331;48.148;16.326;2023-03-29T00:19:28;1.20;1.00
10566;DHT22;5331;48.148;16.326;2023-03-29T00:22:00;1.10;1.00
10566;DHT22;5331;48.148;16.326;2023-03-29T00:24:27;1.10;1.00
10566;DHT22;5331;48.148;16.326;2023-03-29T00:26:54;1.10;1.00
10566;DHT22;5331;48.148;16.326;2023-03-29T00:29:21;1.10;1.00
10566;DHT22;5331;48.148;16.326;2023-03-29T00:31:49;1.10;1.00
10566;DHT22;5331;48.148;16.326;2023-03-29T00:34:18;1.00;1.00
10566;DHT22;5331;48.148;16.326;2023-03-29T00:36:45;0.80;1.00
10566;DHT22;5331;48.148;16.326;2023-03-29T00:39:24;0.80;1.00
10566;DHT22;5331;48.148;16.326;2023-03-29T00:41:52;0.70;1.00
10566;DHT22;5331;48.148;16.326;2023-03-29T00:44:55;0.70;1.00
10566;DHT22;5331;48.148;16.326;2023-03-29T00:47:26;0.60;1.00
10566;DHT22;5331;48.148;16.326;2023-03-29T00:49:56;0.60;1.00
10566;DHT22;5331;48.148;16.326;2023-03-29T00:52:26;0.60;1.00
10566;DHT22;5331;48.148;16.326;2023-03-29T00:54:56;0.60;1.00
10566;DHT22;5331;48.148;16.326;2023-03-29T00:57:26;0.60;1.00
10566;DHT22;5331;48.148;16.326;2023-03-29T00:59:55;0.70;1.00
10566;DHT22;5331;48.148;16.326;2023-03-29T01:02:27;0.60;1.00
10566;DHT22;5331;48.148;16.326;2023-03-29T01:05:01;0.60;1.00
10566;DHT22;5331;48.148;16.326;2023-03-29T01:07:34;0.50;1.00
10566;DHT22;5331;48.148;16.326;2023-03-29T01:10:08;0.50;1.00
10566;DHT22;5331;48.148;16.326;2023-03-29T01:12:39;0.50;1.00
10566;DHT22;5331;48.148;16.326;2023-03-29T01:15:09;0.40;1.00
10566;DHT22;5331;48.148;16.326;2023-03-29T01:17:38;0.40;1.00
10566;DHT22;5331;48.148;16.326;2023-03-29T01:20:12;0.40;1.00
10566;DHT22;5331;48.148;16.326;2023-03-29T01:22:53;0.40;1.00
10566;DHT22;5331;48.148;16.326;2023-03-29T01:25:33;0.40;1.00
10566;DHT22;5331;48.148;16.326;2023-03-29T01:28:06;0.30;1.00
10566;DHT22;5331;48.148;16.326;2023-03-29T01:30:38;0.20;1.00
10566;DHT22;5331;48.148;16.326;2023-03-29T01:33:11;0.30;1.00
10566;DHT22;5331;48.148;16.326;2023-03-29T01:35:41;0.30;1.00
10566;DHT22;5331;48.148;16.326;2023-03-29T01:38:12;0.30;1.00
10566;DHT22;5331;48.148;16.326;2023-03-29T01:40:41;0.30;1.00
10566;DHT22;5331;48.148;16.326;2023-03-29T01:43:20;0.30;1.00
10566;DHT22;5331;48.148;16.326;2023-03-29T01:45:57;0.30;1.00
10566;DHT22;5331;48.148;16.326;2023-03-29T01:48:28;0.30;1.00
10566;DHT22;5331;48.148;16.326;2023-03-29T01:51:01;0.30;1.00
10566;DHT22;5331;48.148;16.326;2023-03-29T01:53:32;0.30;1.00
10566;DHT22;5331;48.148;16.326;2023-03-29T01:56:03;0.20;1.00
10566;DHT22;5331;48.148;16.326;2023-03-29T01:58:37;0.10;1.00
10566;DHT22;5331;48.148;16.326;2023-03-29T02:01:08;0.10;1.00
10566;DHT22;5331;48.148;16.326;2023-03-29T02:03:37;0.10;1.00
10566;DHT22;5331;48.148;16.326;2023-03-29T02:06:09;0.10;1.00
10566;DHT22;5331;48.148;16.326;2023-03-29T02:08:37;0.00;1.00
10566;DHT22;5331;48.148;16.326;2023-03-29T02:11:05;-0.10;1.00
10566;DHT22;5331;48.148;16.326;2023-03-29T02:13:34;-0.10;1.00
10566;DHT22;5331;48.148;16.326;2023-03-29T02:16:03;-0.10;1.00
10566;DHT22;5331;48.148;16.326;2023-03-29T02:18:34;-0.10;1.00
10566;DHT22;5331;48.148;16.326;2023-03-29T02:21:01;-0.10;1.00
10566;DHT22;5331;48.148;16.326;2023-03-29T02:23:32;-0.10;1.00
10566;DHT22;5331;48.148;16.326;2023-03-29T02:26:00;-0.10;1.00
10566;DHT22;5331;48.148;16.326;2023-03-29T02:28:29;-0.10;1.00
10566;DHT22;5331;48.148;16.326;2023-03-29T02:31:02;-0.10;1.00
10566;DHT22;5331;48.148;16.326;2023-03-29T02:33:33;-0.20;1.00
10566;DHT22;5331;48.148;16.326;2023-03-29T02:36:07;-0.20;1.00
10566;DHT22;5331;48.148;16.326;2023-03-29T02:38:36;-0.20;1.00
10566;DHT22;5331;48.148;16.326;2023-03-29T02:41:04;-0.30;1.00
10566;DHT22;5331;48.148;16.326;2023-03-29T02:43:33;-0.30;1.00
10566;DHT22;5331;48.148;16.326;2023-03-29T02:46:04;-0.30;1.00
10566;DHT22;5331;48.148;16.326;2023-03-29T02:48:33;-0.30;1.00
10566;DHT22;5331;48.148;16.326;2023-03-29T02:51:06;-0.30;1.00
10566;DHT22;5331;48.148;16.326;2023-03-29T02:53:39;-0.30;1.00
10566;DHT22;5331;48.148;16.326;2023-03-29T02:56:08;-0.30;1.00
10566;DHT22;5331;48.148;16.326;2023-03-29T02:58:35;-0.30;1.00
10566;DHT22;5331;48.148;16.326;2023-03-29T03:01:05;-0.30;1.00
10566;DHT22;5331;48.148;16.326;2023-03-29T03:03:34;-0.30;1.00
10566;DHT22;5331;48.148;16.326;2023-03-29T03:06:01;-0.30;1.00
10566;DHT22;5331;48.148;16.326;2023-03-29T03:08:28;-0.30;1.00
10566;DHT22;5331;48.148;16.326;2023-03-29T03:10:55;-0.30;1.00
10566;DHT22;5331;48.148;16.326;2023-03-29T03:13:22;-0.30;1.00
10566;DHT22;5331;48.148;16.326;2023-03-29T03:15:50;-0.30;1.00
10566;DHT22;5331;48.148;16.326;2023-03-29T03:18:18;-0.30;1.00
10566;DHT22;5331;48.148;16.326;2023-03-29T03:20:54;-0.30;1.00
10566;DHT22;5331;48.148;16.326;2023-03-29T03:23:21;-0.30;1.00
10566;DHT22;5331;48.148;16.326;2023-03-29T03:25:48;-0.30;1.00
10566;DHT22;5331;48.148;16.326;2023-03-29T03:28:17;-0.30;1.00
10566;DHT22;5331;48.148;16.326;2023-03-29T03:30:44;-0.30;1.00
10566;DHT22;5331;48.148;16.326;2023-03-29T03:33:11;-0.30;1.00
10566;DHT22;5331;48.148;16.326;2023-03-29T03:35:39;-0.30;1.00
10566;DHT22;5331;48.148;16.326;2023-03-29T03:38:07;-0.30;1.00
10566;DHT22;5331;48.148;16.326;2023-03-29T03:40:35;-0.30;1.00
10566;DHT22;5331;48.148;16.326;2023-03-29T03:43:03;-0.20;1.00
10566;DHT22;5331;48.148;16.326;2023-03-29T03:45:30;-0.30;1.00
10566;DHT22;5331;48.148;16.326;2023-03-29T03:47:57;-0.30;1.00
10566;DHT22;5331;48.148;16.326;2023-03-29T03:50:24;-0.30;1.00
10566;DHT22;5331;48.148;16.326;2023-03-29T03:52:52;-0.40;1.00
10566;DHT22;5331;48.148;16.326;2023-03-29T03:55:20;-0.40;1.00
10566;DHT22;5331;48.148;16.326;2023-03-29T03:57:47;-0.40;1.00
10566;DHT22;5331;48.148;16.326;2023-03-29T04:00:14;-0.40;1.00
10566;DHT22;5331;48.148;16.326;2023-03-29T04:02:46;-0.40;1.00
10566;DHT22;5331;48.148;16.326;2023-03-29T04:05:14;-0.40;1.00
10566;DHT22;5331;48.148;16.326;2023-03-29T04:07:41;-0.50;1.00
10566;DHT22;5331;48.148;16.326;2023-03-29T04:10:10;-0.50;1.00
10566;DHT22;5331;48.148;16.326;2023-03-29T04:12:38;-0.50;1.00
10566;DHT22;5331;48.148;16.326;2023-03-29T04:15:06;-0.40;1.00
10566;DHT22;5331;48.148;16.326;2023-03-29T04:17:35;-0.50;1.00
10566;DHT22;5331;48.148;16.326;2023-03-29T04:20:02;-0.50;1.00
10566;DHT22;5331;48.148;16.326;2023-03-29T04:22:36;-0.50;1.00
10566;DHT22;5331;48.148;16.326;2023-03-29T04:25:03;-0.50;1.00
10566;DHT22;5331;48.148;16.326;2023-03-29T04:27:33;-0.40;1.00
10566;DHT22;5331;48.148;16.326;2023-03-29T04:30:00;-0.40;1.00
10566;DHT22;5331;48.148;16.326;2023-03-29T04:32:28;-0.40;1.00
10566;DHT22;5331;48.148;16.326;2023-03-29T04:34:55;-0.50;1.00
10566;DHT22;5331;48.148;16.326;2023-03-29T04:37:22;-0.50;1.00
10566;DHT22;5331;48.148;16.326;2023-03-29T04:39:49;-0.50;1.00
10566;DHT22;5331;48.148;16.326;2023-03-29T04:42:17;-0.50;1.00
10566;DHT22;5331;48.148;16.326;2023-03-29T04:44:45;-0.50;1.00
10566;DHT22;5331;48.148;16.326;2023-03-29T04:47:13;-0.50;1.00
10566;DHT22;5331;48.148;16.326;2023-03-29T04:49:40;-0.50;1.00
10566;DHT22;5331;48.148;16.326;2023-03-29T04:52:07;-0.50;1.00
10566;DHT22;5331;48.148;16.326;2023-03-29T04:54:34;-0.40;1.00
10566;DHT22;5331;48.148;16.326;2023-03-29T04:57:02;-0.40;1.00
10566;DHT22;5331;48.148;16.326;2023-03-29T04:59:29;-0.40;1.00
10566;DHT22;5331;48.148;16.326;2023-03-29T05:01:58;-0.30;1.00
10566;DHT22;5331;48.148;16.326;2023-03-29T05:04:27;-0.20;1.00
10566;DHT22;5331;48.148;16.326;2023-03-29T05:06:55;-0.20;1.00
10566;DHT22;5331;48.148;16.326;2023-03-29T05:09:22;-0.10;1.00
10566;DHT22;5331;48.148;16.326;2023-03-29T05:11:50;-0.10;1.00
10566;DHT22;5331;48.148;16.326;2023-03-29T05:14:17;-0.10;1.00
10566;DHT22;5331;48.148;16.326;2023-03-29T05:16:44;0.00;1.00
10566;DHT22;5331;48.148;16.326;2023-03-29T05:19:12;0.00;1.00
10566;DHT22;5331;48.148;16.326;2023-03-29T05:21:39;0.10;1.00
10566;DHT22;5331;48.148;16.326;2023-03-29T05:24:06;0.10;1.00
10566;DHT22;5331;48.148;16.326;2023-03-29T05:26:35;0.10;1.00
10566;DHT22;5331;48.148;16.326;2023-03-29T05:29:02;0.10;1.00
10566;DHT22;5331;48.148;16.326;2023-03-29T05:31:29;0.20;1.00
10566;DHT22;5331;48.148;16.326;2023-03-29T05:33:57;0.20;1.00
10566;DHT22;5331;48.148;16.326;2023-03-29T05:36:25;0.20;1.00
10566;DHT22;5331;48.148;16.326;2023-03-29T05:38:53;0.30;1.00
10566;DHT22;5331;48.148;16.326;2023-03-29T05:41:22;0.40;1.00
10566;DHT22;5331;48.148;16.326;2023-03-29T05:43:50;0.50;1.00
10566;DHT22;5331;48.148;16.326;2023-03-29T05:46:17;0.60;1.00
10566;DHT22;5331;48.148;16.326;2023-03-29T05:48:44;0.60;1.00
10566;DHT22;5331;48.148;16.326;2023-03-29T05:51:11;0.70;1.00
10566;DHT22;5331;48.148;16.326;2023-03-29T05:53:40;0.70;1.00
10566;DHT22;5331;48.148;16.326;2023-03-29T05:56:09;0.80;1.00
10566;DHT22;5331;48.148;16.326;2023-03-29T05:58:40;0.90;1.00
10566;DHT22;5331;48.148;16.326;2023-03-29T06:01:10;1.00;1.00
10566;DHT22;5331;48.148;16.326;2023-03-29T06:03:38;1.10;1.00
10566;DHT22;5331;48.148;16.326;2023-03-29T06:06:06;1.40;1.00
10566;DHT22;5331;48.148;16.326;2023-03-29T06:08:34;1.60;1.00
10566;DHT22;5331;48.148;16.326;2023-03-29T06:11:04;1.80;1.00
10566;DHT22;5331;48.148;16.326;2023-03-29T06:13:33;1.90;1.00
10566;DHT22;5331;48.148;16.326;2023-03-29T06:16:02;2.00;1.00
10566;DHT22;5331;48.148;16.326;2023-03-29T06:18:30;2.40;1.00
10566;DHT22;5331;48.148;16.326;2023-03-29T06:20:57;3.20;1.00
10566;DHT22;5331;48.148;16.326;2023-03-29T06:23:25;3.60;1.00
10566;DHT22;5331;48.148;16.326;2023-03-29T06:25:52;3.90;1.00
10566;DHT22;5331;48.148;16.326;2023-03-29T06:28:22;4.10;1.00
10566;DHT22;5331;48.148;16.326;2023-03-29T06:30:49;4.50;1.00
10566;DHT22;5331;48.148;16.326;2023-03-29T06:33:18;5.10;1.00
10566;DHT22;5331;48.148;16.326;2023-03-29T06:35:46;5.20;1.00
10566;DHT22;5331;48.148;16.326;2023-03-29T06:38:13;5.40;1.00
10566;DHT22;5331;48.148;16.326;2023-03-29T06:40:41;5.60;1.00
10566;DHT22;5331;48.148;16.326;2023-03-29T06:43:09;5.70;1.00
10566;DHT22;5331;48.148;16.326;2023-03-29T06:45:38;5.80;1.00
10566;DHT22;5331;48.148;16.326;2023-03-29T06:48:06;5.70;1.00
10566;DHT22;5331;48.148;16.326;2023-03-29T06:50:34;5.80;1.00
10566;DHT22;5331;48.148;16.326;2023-03-29T06:53:01;6.30;1.00
10566;DHT22;5331;48.148;16.326;2023-03-29T06:55:28;6.80;1.00
10566;DHT22;5331;48.148;16.326;2023-03-29T06:57:56;7.10;1.00
10566;DHT22;5331;48.148;16.326;2023-03-29T07:00:24;7.00;1.00
10566;DHT22;5331;48.148;16.326;2023-03-29T07:02:55;6.80;1.00
10566;DHT22;5331;48.148;16.326;2023-03-29T07:05:25;6.70;1.00
10566;DHT22;5331;48.148;16.326;2023-03-29T07:07:53;6.50;1.00
10566;DHT22;5331;48.148;16.326;2023-03-29T07:10:22;6.40;1.00
10566;DHT22;5331;48.148;16.326;2023-03-29T07:12:50;6.20;1.00
10566;DHT22;5331;48.148;16.326;2023-03-29T07:15:18;6.00;1.00
10566;DHT22;5331;48.148;16.326;2023-03-29T07:17:46;5.90;1.00
10566;DHT22;5331;48.148;16.326;2023-03-29T07:20:14;5.70;1.00
10566;DHT22;5331;48.148;16.326;2023-03-29T07:22:43;5.60;1.00
10566;DHT22;5331;48.148;16.326;2023-03-29T07:25:11;5.50;1.00
10566;DHT22;5331;48.148;16.326;2023-03-29T07:27:39;5.50;1.00
10566;DHT22;5331;48.148;16.326;2023-03-29T07:30:09;5.50;1.00
10566;DHT22;5331;48.148;16.326;2023-03-29T07:32:37;5.40;1.00
10566;DHT22;5331;48.148;16.326;2023-03-29T07:35:06;5.40;1.00
10566;DHT22;5331;48.148;16.326;2023-03-29T07:37:35;5.40;1.00
10566;DHT22;5331;48.148;16.326;2023-03-29T07:40:04;5.40;1.00
10566;DHT22;5331;48.148;16.326;2023-03-29T07:42:35;5.50;1.00
10566;DHT22;5331;48.148;16.326;2023-03-29T07:45:03;5.40;1.00
10566;DHT22;5331;48.148;16.326;2023-03-29T07:47:30;5.40;1.00
10566;DHT22;5331;48.148;16.326;2023-03-29T07:49:57;5.50;1.00
10566;DHT22;5331;48.148;16.326;2023-03-29T07:52:24;5.60;1.00
10566;DHT22;5331;48.148;16.326;2023-03-29T07:54:56;5.60;1.00
10566;DHT22;5331;48.148;16.326;2023-03-29T07:57:23;5.60;1.00
10566;DHT22;5331;48.148;16.326;2023-03-29T07:59:51;5.70;1.00
10566;DHT22;5331;48.148;16.326;2023-03-29T08:02:18;5.80;1.00
10566;DHT22;5331;48.148;16.326;2023-03-29T08:04:45;5.90;1.00
10566;DHT22;5331;48.148;16.326;2023-03-29T08:07:13;5.80;1.00
10566;DHT22;5331;48.148;16.326;2023-03-29T08:09:40;5.90;1.00
10566;DHT22;5331;48.148;16.326;2023-03-29T08:12:09;5.90;1.00
10566;DHT22;5331;48.148;16.326;2023-03-29T08:14:36;6.00;1.00
10566;DHT22;5331;48.148;16.326;2023-03-29T08:17:03;6.00;1.00
10566;DHT22;5331;48.148;16.326;2023-03-29T08:19:30;6.30;1.00
10566;DHT22;5331;48.148;16.326;2023-03-29T08:21:57;6.40;1.00
10566;DHT22;5331;48.148;16.326;2023-03-29T08:24:24;6.50;1.00
10566;DHT22;5331;48.148;16.326;2023-03-29T08:26:51;6.60;1.00
10566;DHT22;5331;48.148;16.326;2023-03-29T08:29:20;6.70;1.00
10566;DHT22;5331;48.148;16.326;2023-03-29T08:31:48;6.70;1.00
10566;DHT22;5331;48.148;16.326;2023-03-29T08:34:15;6.80;1.00
10566;DHT22;5331;48.148;16.326;2023-03-29T08:36:42;6.90;1.00
10566;DHT22;5331;48.148;16.326;2023-03-29T08:39:09;6.90;1.00
10566;DHT22;5331;48.148;16.326;2023-03-29T08:41:44;7.10;1.00
10566;DHT22;5331;48.148;16.326;2023-03-29T08:44:23;7.30;1.00
10566;DHT22;5331;48.148;16.326;2023-03-29T08:46:59;7.50;1.00
10566;DHT22;5331;48.148;16.326;2023-03-29T08:49:32;7.50;1.00
10566;DHT22;5331;48.148;16.326;2023-03-29T08:52:04;7.40;1.00
10566;DHT22;5331;48.148;16.326;2023-03-29T08:54:35;7.50;1.00
10566;DHT22;5331;48.148;16.326;2023-03-29T08:57:11;7.60;1.00
10566;DHT22;5331;48.148;16.326;2023-03-29T08:59:43;7.70;1.00
10566;DHT22;5331;48.148;16.326;2023-03-29T09:02:14;7.70;1.00
10566;DHT22;5331;48.148;16.326;2023-03-29T09:04:42;7.80;1.00
10566;DHT22;5331;48.148;16.326;2023-03-29T09:07:09;7.80;1.00
10566;DHT22;5331;48.148;16.326;2023-03-29T09:09:37;7.80;1.00
10566;DHT22;5331;48.148;16.326;2023-03-29T09:12:12;7.80;1.00
10566;DHT22;5331;48.148;16.326;2023-03-29T09:14:59;7.80;1.00
10566;DHT22;5331;48.148;16.326;2023-03-29T09:17:39;7.80;1.00
10566;DHT22;5331;48.148;16.326;2023-03-29T09:20:18;7.80;1.00
10566;DHT22;5331;48.148;16.326;2023-03-29T09:22:53;7.80;1.00
10566;DHT22;5331;48.148;16.326;2023-03-29T09:25:34;7.70;1.00
10566;DHT22;5331;48.148;16.326;2023-03-29T09:28:07;7.60;1.00
10566;DHT22;5331;48.148;16.326;2023-03-29T09:30:40;7.60;1.00
10566;DHT22;5331;48.148;16.326;2023-03-29T09:33:12;7.60;1.00
10566;DHT22;5331;48.148;16.326;2023-03-29T09:35:46;7.50;1.00
10566;DHT22;5331;48.148;16.326;2023-03-29T09:38:17;7.50;1.00
10566;DHT22;5331;48.148;16.326;2023-03-29T09:40:48;7.50;1.00
10566;DHT22;5331;48.148;16.326;2023-03-29T09:43:21;7.60;1.00
10566;DHT22;5331;48.148;16.326;2023-03-29T09:45:55;7.70;1.00
10566;DHT22;5331;48.148;16.326;2023-03-29T09:48:24;7.70;1.00
10566;DHT22;5331;48.148;16.326;2023-03-29T09:50:52;7.70;1.00
10566;DHT22;5331;48.148;16.326;2023-03-29T09:53:20;7.70;1.00
10566;DHT22;5331;48.148;16.326;2023-03-29T09:55:48;7.70;1.00
10566;DHT22;5331;48.148;16.326;2023-03-29T09:58:18;7.60;1.00
10566;DHT22;5331;48.148;16.326;2023-03-29T10:00:46;7.70;1.00
10566;DHT22;5331;48.148;16.326;2023-03-29T10:03:20;7.80;1.00
10566;DHT22;5331;48.148;16.326;2023-03-29T10:05:48;7.70;1.00
10566;DHT22;5331;48.148;16.326;2023-03-29T10:08:19;7.70;1.00
10566;DHT22;5331;48.148;16.326;2023-03-29T10:10:47;7.70;1.00
10566;DHT22;5331;48.148;16.326;2023-03-29T10:13:19;7.60;1.00
10566;DHT22;5331;48.148;16.326;2023-03-29T10:16:00;7.40;1.00
10566;DHT22;5331;48.148;16.326;2023-03-29T10:18:30;7.40;1.00
10566;DHT22;5331;48.148;16.326;2023-03-29T10:20:58;7.50;1.00
10566;DHT22;5331;48.148;16.326;2023-03-29T10:23:30;7.50;1.00
10566;DHT22;5331;48.148;16.326;2023-03-29T10:25:57;7.70;1.00
10566;DHT22;5331;48.148;16.326;2023-03-29T10:28:26;7.70;1.00
10566;DHT22;5331;48.148;16.326;2023-03-29T10:30:57;7.80;1.00
10566;DHT22;5331;48.148;16.326;2023-03-29T10:33:30;7.90;1.00
10566;DHT22;5331;48.148;16.326;2023-03-29T10:35:57;7.90;1.00
10566;DHT22;5331;48.148;16.326;2023-03-29T10:38:27;7.90;1.00
10566;DHT22;5331;48.148;16.326;2023-03-29T10:41:02;7.90;1.00
10566;DHT22;5331;48.148;16.326;2023-03-29T10:43:35;8.00;1.00
10566;DHT22;5331;48.148;16.326;2023-03-29T10:46:07;8.00;1.00
10566;DHT22;5331;48.148;16.326;2023-03-29T10:48:36;8.10;1.00
10566;DHT22;5331;48.148;16.326;2023-03-29T10:51:04;8.20;1.00
10566;DHT22;5331;48.148;16.326;2023-03-29T10:53:33;8.30;1.00
10566;DHT22;5331;48.148;16.326;2023-03-29T10:56:22;8.30;1.00
10566;DHT22;5331;48.148;16.326;2023-03-29T10:59:25;8.30;1.00
10566;DHT22;5331;48.148;16.326;2023-03-29T11:05:24;8.40;1.00
10566;DHT22;5331;48.148;16.326;2023-03-29T11:10:55;8.40;1.00
10566;DHT22;5331;48.148;16.326;2023-03-29T11:13:28;8.40;1.00
10566;DHT22;5331;48.148;16.326;2023-03-29T11:16:08;8.30;1.00
10566;DHT22;5331;48.148;16.326;2023-03-29T11:18:49;8.20;1.00
10566;DHT22;5331;48.148;16.326;2023-03-29T11:21:26;8.10;1.00
10566;DHT22;5331;48.148;16.326;2023-03-29T11:24:12;8.10;1.00
10566;DHT22;5331;48.148;16.326;2023-03-29T11:26:58;8.10;1.00
10566;DHT22;5331;48.148;16.326;2023-03-29T11:29:29;8.20;1.00
10566;DHT22;5331;48.148;16.326;2023-03-29T11:32:01;8.20;1.00
10566;DHT22;5331;48.148;16.326;2023-03-29T11:34:33;8.30;1.00
10566;DHT22;5331;48.148;16.326;2023-03-29T11:37:09;8.50;1.00
10566;DHT22;5331;48.148;16.326;2023-03-29T11:39:43;8.50;1.00
10566;DHT22;5331;48.148;16.326;2023-03-29T11:42:19;8.60;1.00
10566;DHT22;5331;48.148;16.326;2023-03-29T11:44:47;8.60;1.00
10566;DHT22;5331;48.148;16.326;2023-03-29T11:47:19;8.70;1.00
10566;DHT22;5331;48.148;16.326;2023-03-29T11:49:51;8.60;1.00
10566;DHT22;5331;48.148;16.326;2023-03-29T11:52:24;8.60;1.00
10566;DHT22;5331;48.148;16.326;2023-03-29T11:54:57;8.40;1.00
10566;DHT22;5331;48.148;16.326;2023-03-29T11:57:29;8.30;1.00
10566;DHT22;5331;48.148;16.326;2023-03-29T12:00:00;8.30;1.00
10566;DHT22;5331;48.148;16.326;2023-03-29T12:02:33;8.30;1.00
10566;DHT22;5331;48.148;16.326;2023-03-29T12:05:08;8.40;1.00
10566;DHT22;5331;48.148;16.326;2023-03-29T12:07:44;8.60;1.00
10566;DHT22;5331;48.148;16.326;2023-03-29T12:10:17;8.80;1.00
10566;DHT22;5331;48.148;16.326;2023-03-29T12:12:49;9.00;1.00
10566;DHT22;5331;48.148;16.326;2023-03-29T12:15:21;8.90;1.00
10566;DHT22;5331;48.148;16.326;2023-03-29T12:17:59;8.80;1.00
10566;DHT22;5331;48.148;16.326;2023-03-29T12:20:30;8.80;1.00
10566;DHT22;5331;48.148;16.326;2023-03-29T12:23:01;8.80;1.00
10566;DHT22;5331;48.148;16.326;2023-03-29T12:25:30;8.80;1.00
10566;DHT22;5331;48.148;16.326;2023-03-29T12:28:13;8.80;1.00
10566;DHT22;5331;48.148;16.326;2023-03-29T12:30:57;8.70;1.00
10566;DHT22;5331;48.148;16.326;2023-03-29T12:33:50;8.50;1.00
10566;DHT22;5331;48.148;16.326;2023-03-29T12:36:41;8.30;1.00
10566;DHT22;5331;48.148;16.326;2023-03-29T12:39:15;8.30;1.00
10566;DHT22;5331;48.148;16.326;2023-03-29T12:41:43;8.30;1.00
10566;DHT22;5331;48.148;16.326;2023-03-29T12:44:14;8.40;1.00
10566;DHT22;5331;48.148;16.326;2023-03-29T12:46:42;8.40;1.00
10566;DHT22;5331;48.148;16.326;2023-03-29T12:49:13;8.40;1.00
10566;DHT22;5331;48.148;16.326;2023-03-29T12:51:46;8.40;1.00
10566;DHT22;5331;48.148;16.326;2023-03-29T12:54:17;8.40;1.00
10566;DHT22;5331;48.148;16.326;2023-03-29T12:56:55;8.40;1.00
10566;DHT22;5331;48.148;16.326;2023-03-29T12:59:35;8.30;1.00
10566;DHT22;5331;48.148;16.326;2023-03-29T13:02:32;8.20;1.00
10566;DHT22;5331;48.148;16.326;2023-03-29T13:05:00;8.20;1.00
10566;DHT22;5331;48.148;16.326;2023-03-29T13:07:42;8.20;1.00
10566;DHT22;5331;48.148;16.326;2023-03-29T13:10:32;8.20;1.00
10566;DHT22;5331;48.148;16.326;2023-03-29T13:13:10;8.10;1.00
10566;DHT22;5331;48.148;16.326;2023-03-29T13:15:42;8.20;1.00
10566;DHT22;5331;48.148;16.326;2023-03-29T13:18:27;8.10;1.00
10566;DHT22;5331;48.148;16.326;2023-03-29T13:21:04;8.30;1.00
10566;DHT22;5331;48.148;16.326;2023-03-29T13:23:43;8.40;1.00
10566;DHT22;5331;48.148;16.326;2023-03-29T13:26:34;8.50;1.00
10566;DHT22;5331;48.148;16.326;2023-03-29T13:29:15;8.50;1.00
10566;DHT22;5331;48.148;16.326;2023-03-29T13:31:50;8.30;1.00
10566;DHT22;5331;48.148;16.326;2023-03-29T13:34:33;8.10;1.00
10566;DHT22;5331;48.148;16.326;2023-03-29T13:37:12;8.10;1.00
10566;DHT22;5331;48.148;16.326;2023-03-29T13:39:48;8.10;1.00
10566;DHT22;5331;48.148;16.326;2023-03-29T13:42:22;8.30;1.00
10566;DHT22;5331;48.148;16.326;2023-03-29T13:44:50;8.30;1.00
10566;DHT22;5331;48.148;16.326;2023-03-29T13:47:37;8.20;1.00
10566;DHT22;5331;48.148;16.326;2023-03-29T13:50:13;8.20;1.00
10566;DHT22;5331;48.148;16.326;2023-03-29T13:52:45;8.10;1.00
10566;DHT22;5331;48.148;16.326;2023-03-29T13:55:21;8.00;1.00
10566;DHT22;5331;48.148;16.326;2023-03-29T13:57:56;8.00;1.00
10566;DHT22;5331;48.148;16.326;2023-03-29T14:00:29;8.10;1.00
10566;DHT22;5331;48.148;16.326;2023-03-29T14:02:58;8.10;1.00
10566;DHT22;5331;48.148;16.326;2023-03-29T14:05:29;8.20;1.00
10566;DHT22;5331;48.148;16.326;2023-03-29T14:08:05;8.30;1.00
10566;DHT22;5331;48.148;16.326;2023-03-29T14:10:38;8.20;1.00
10566;DHT22;5331;48.148;16.326;2023-03-29T14:13:09;8.20;1.00
10566;DHT22;5331;48.148;16.326;2023-03-29T14:15:42;8.30;1.00
10566;DHT22;5331;48.148;16.326;2023-03-29T14:18:11;8.40;1.00
10566;DHT22;5331;48.148;16.326;2023-03-29T14:20:42;8.30;1.00
10566;DHT22;5331;48.148;16.326;2023-03-29T14:23:10;8.20;1.00
10566;DHT22;5331;48.148;16.326;2023-03-29T14:25:38;8.30;1.00
10566;DHT22;5331;48.148;16.326;2023-03-29T14:28:18;8.30;1.00
10566;DHT22;5331;48.148;16.326;2023-03-29T14:30:46;8.40;1.00
10566;DHT22;5331;48.148;16.326;2023-03-29T14:33:17;8.70;1.00
10566;DHT22;5331;48.148;16.326;2023-03-29T14:35:50;8.80;1.00
10566;DHT22;5331;48.148;16.326;2023-03-29T14:38:17;8.60;1.00
10566;DHT22;5331;48.148;16.326;2023-03-29T14:40:44;8.50;1.00
10566;DHT22;5331;48.148;16.326;2023-03-29T14:43:17;8.50;1.00
10566;DHT22;5331;48.148;16.326;2023-03-29T14:45:45;8.50;1.00
10566;DHT22;5331;48.148;16.326;2023-03-29T14:48:12;8.50;1.00
10566;DHT22;5331;48.148;16.326;2023-03-29T14:50:40;8.60;1.00
10566;DHT22;5331;48.148;16.326;2023-03-29T14:53:15;8.60;1.00
10566;DHT22;5331;48.148;16.326;2023-03-29T14:55:44;8.60;1.00
10566;DHT22;5331;48.148;16.326;2023-03-29T14:58:18;8.70;1.00
10566;DHT22;5331;48.148;16.326;2023-03-29T15:00:48;8.80;1.00
10566;DHT22;5331;48.148;16.326;2023-03-29T15:03:16;8.70;1.00
10566;DHT22;5331;48.148;16.326;2023-03-29T15:05:48;8.70;1.00
10566;DHT22;5331;48.148;16.326;2023-03-29T15:08:18;8.60;1.00
10566;DHT22;5331;48.148;16.326;2023-03-29T15:10:48;8.60;1.00
10566;DHT22;5331;48.148;16.326;2023-03-29T15:13:20;8.60;1.00
10566;DHT22;5331;48.148;16.326;2023-03-29T15:15:51;8.50;1.00
10566;DHT22;5331;48.148;16.326;2023-03-29T15:18:22;8.40;1.00
10566;DHT22;5331;48.148;16.326;2023-03-29T15:20:53;8.40;1.00
10566;DHT22;5331;48.148;16.326;2023-03-29T15:23:22;8.40;1.00
10566;DHT22;5331;48.148;16.326;2023-03-29T15:25:54;8.30;1.00
10566;DHT22;5331;48.148;16.326;2023-03-29T15:28:28;8.40;1.00
10566;DHT22;5331;48.148;16.326;2023-03-29T15:30:58;8.30;1.00
10566;DHT22;5331;48.148;16.326;2023-03-29T15:33:31;8.20;1.00
10566;DHT22;5331;48.148;16.326;2023-03-29T15:35:59;8.10;1.00
10566;DHT22;5331;48.148;16.326;2023-03-29T15:38:26;8.10;1.00
10566;DHT22;5331;48.148;16.326;2023-03-29T15:40:53;8.10;1.00
10566;DHT22;5331;48.148;16.326;2023-03-29T15:43:21;8.00;1.00
10566;DHT22;5331;48.148;16.326;2023-03-29T15:45:49;8.00;1.00
10566;DHT22;5331;48.148;16.326;2023-03-29T15:48:18;7.90;1.00
10566;DHT22;5331;48.148;16.326;2023-03-29T15:50:46;7.90;1.00
10566;DHT22;5331;48.148;16.326;2023-03-29T15:53:14;7.80;1.00
10566;DHT22;5331;48.148;16.326;2023-03-29T15:55:46;7.80;1.00
10566;DHT22;5331;48.148;16.326;2023-03-29T15:58:16;7.80;1.00
10566;DHT22;5331;48.148;16.326;2023-03-29T16:00:47;7.80;1.00
10566;DHT22;5331;48.148;16.326;2023-03-29T16:03:16;7.80;1.00
10566;DHT22;5331;48.148;16.326;2023-03-29T16:05:44;7.80;1.00
10566;DHT22;5331;48.148;16.326;2023-03-29T16:08:12;7.80;1.00
10566;DHT22;5331;48.148;16.326;2023-03-29T16:10:40;7.70;1.00
10566;DHT22;5331;48.148;16.326;2023-03-29T16:13:11;7.70;1.00
10566;DHT22;5331;48.148;16.326;2023-03-29T16:15:40;7.70;1.00
10566;DHT22;5331;48.148;16.326;2023-03-29T16:18:08;7.60;1.00
10566;DHT22;5331;48.148;16.326;2023-03-29T16:20:36;7.60;1.00
10566;DHT22;5331;48.148;16.326;2023-03-29T16:23:04;7.50;1.00
10566;DHT22;5331;48.148;16.326;2023-03-29T16:25:35;7.60;1.00
10566;DHT22;5331;48.148;16.326;2023-03-29T16:28:04;7.50;1.00
10566;DHT22;5331;48.148;16.326;2023-03-29T16:30:33;7.60;1.00